Airfield :







YOU CAN JOIN US ON...

 
LOGIN :

Register | Disclaimer

   EN    FR    IT 

 









Legend :    VFR   Marginal VFR   IFR   Intensive IFR   Very Intensive IFR
Visi :
Ceiling :
>= 8 km
>= 3000ft
5 to 8 km
1000 to 3000 ft
1500m to 5 km
500 to 1000 ft
800 to 1500m
200 to 500 ft
< 800m
< 200 ft
Symbols :   Thunderstorms  Fog  Heavy snow  Heavy precipitations  Wind > 20 kt






- Airport Elevation : 352 ft


KAUG - Augusta State

CURRENT METAR :
  • 280653Z AUTO 02016G26KT 10SM OVC027 07/02 A2993 RMK AO2 PK WND 02028/0643 SLP136 T00720017

EXPIRED METARs :
  • 280553Z AUTO 01017G24KT 10SM OVC028 07/01 A2992 RMK AO2 SLP134 T00720011 10094 20072 53002
  • 280540Z AUTO 01015G23KT 10SM OVC029 07/01 A2992 RMK AO2 T00720011
  • 280453Z AUTO 01021G27KT 10SM BKN030 07/01 A2992 RMK AO2 PK WND 02031/0433 SLP135 T00720011 401170067

TAF KAUG
Valid from the 28 at 06:00 until the 29 at 06:00 UTC


280521Z 2806/2906 01015G25KT P6SM BKN030
KZBW FIR / North America



MET'MAP, your aeronautical weather chart ! - Copyright ORBIFLY December 2007 - Disclaimer

ORBIFLY MET'MAP TEAM :

Programming & Development : Alexandra Zaïnal
Concept & original design : Baudouin d'Aumeries
Assistance for programming : Marc-Olivier Méhu
Technical & hardware support : Manuel Goepfert

Contact : metmap@orbifly.com




SOURCES & CREDITS :

   NOAA